Time;durP1;ratioP1;P1;durP2;ratioP2;P2;SDS_P1;SDS_P2;PMS_P1;PMS_P2;Temp;Humidity;BMP_temperature;BMP_pressure;BME280_temperature;BME280_humidity;BME280_pressure;Samples;Min_cycle;Max_cycle;Signal;HPM_P1;HPM_P2
2024/02/01 00:01:42;;;;;;;57.22;30.60;;;;;;;-1.60;100.00;98032.41;4990497;28;20441;-73
2024/02/01 00:04:07;;;;;;;52.67;29.42;;;;;;;-1.73;100.00;98026.38;4994733;28;20041;-72
2024/02/01 00:06:32;;;;;;;51.67;29.20;;;;;;;-1.77;100.00;98025.22;4998296;28;20045;-72
2024/02/01 00:08:58;;;;;;;46.20;26.92;;;;;;;-1.63;100.00;98028.31;4998173;28;20037;-74
2024/02/01 00:11:23;;;;;;;46.78;27.92;;;;;;;-1.62;100.00;98029.97;4996006;28;20116;-73
2024/02/01 00:13:48;;;;;;;47.05;26.95;;;;;;;-1.44;100.00;98020.72;5000750;28;20049;-74
2024/02/01 00:16:21;;;;;;;47.22;26.77;;;;;;;-1.25;100.00;98020.31;4993394;28;20644;-72
2024/02/01 00:18:47;;;;;;;46.17;26.30;;;;;;;-1.23;100.00;98013.59;5000273;28;20065;-75
2024/02/01 00:21:13;;;;;;;50.50;26.25;;;;;;;-1.16;100.00;98018.75;4994102;28;20479;-73
2024/02/01 00:23:38;;;;;;;50.72;27.50;;;;;;;-1.00;100.00;98025.84;4998402;28;20081;-73
2024/02/01 00:26:03;;;;;;;46.05;25.30;;;;;;;-0.89;100.00;98029.44;4991224;28;20042;-73
2024/02/01 00:28:31;;;;;;;53.55;26.90;;;;;;;-0.74;100.00;98027.91;4996796;28;20676;-74
2024/02/01 00:30:56;;;;;;;56.45;26.25;;;;;;;-0.77;100.00;98021.97;4999585;28;20073;-73
2024/02/01 00:33:22;;;;;;;44.67;25.48;;;;;;;-0.68;100.00;98027.66;4995306;28;20989;-73
2024/02/01 00:35:47;;;;;;;48.28;26.75;;;;;;;-0.55;100.00;98028.28;4998408;28;20053;-74
2024/02/01 00:38:12;;;;;;;45.13;25.95;;;;;;;-0.40;100.00;98037.25;4996813;28;20088;-74
2024/02/01 00:40:38;;;;;;;48.92;28.30;;;;;;;-0.24;100.00;98021.94;4999568;28;20107;-73
2024/02/01 00:43:03;;;;;;;49.28;28.25;;;;;;;-0.35;100.00;98022.19;4996880;28;20579;-73
2024/02/01 00:45:29;;;;;;;47.67;27.67;;;;;;;-0.11;100.00;98019.81;4996945;28;20145;-73
2024/02/01 00:47:54;;;;;;;55.75;28.77;;;;;;;-0.07;100.00;98013.66;4999440;28;20056;-73
2024/02/01 00:50:19;;;;;;;54.65;29.17;;;;;;;-0.08;100.00;98014.72;4993772;28;20050;-73
2024/02/01 00:52:46;;;;;;;52.13;28.15;;;;;;;-0.10;100.00;98018.75;4998925;28;20439;-74
2024/02/01 00:55:12;;;;;;;48.60;28.80;;;;;;;-0.08;100.00;98016.63;4986938;28;20690;-72
2024/02/01 00:57:37;;;;;;;48.05;27.65;;;;;;;-0.03;100.00;98024.72;4999487;28;20057;-73
2024/02/01 01:00:03;;;;;;;47.95;28.75;;;;;;;0.24;100.00;98029.88;4996641;28;20073;-71
2024/02/01 01:02:29;;;;;;;49.08;27.25;;;;;;;0.23;100.00;98016.69;4992466;28;20772;-71
2024/02/01 01:04:54;;;;;;;51.50;26.27;;;;;;;0.20;100.00;98031.50;4997823;28;20085;-72
2024/02/01 01:07:19;;;;;;;50.22;26.65;;;;;;;0.24;100.00;98018.31;4995787;28;20049;-74
2024/02/01 01:09:45;;;;;;;45.28;26.83;;;;;;;0.33;100.00;98008.63;5005143;28;20054;-73
2024/02/01 01:12:10;;;;;;;48.90;25.55;;;;;;;0.35;100.00;98009.16;4989574;28;20066;-73
2024/02/01 01:14:36;;;;;;;44.67;26.45;;;;;;;0.45;100.00;98011.03;4996777;28;20065;-71
2024/02/01 01:17:01;;;;;;;43.45;24.48;;;;;;;0.54;100.00;98006.72;4996297;28;20038;-70
2024/02/01 01:19:26;;;;;;;44.70;26.23;;;;;;;0.43;100.00;98005.09;4989792;28;20081;-73
2024/02/01 01:21:53;;;;;;;49.28;26.75;;;;;;;0.31;100.00;97997.31;4997746;28;20073;-73
2024/02/01 01:24:18;;;;;;;43.85;24.60;;;;;;;0.31;100.00;98008.09;4994393;28;20110;-73
2024/02/01 01:26:43;;;;;;;46.15;26.67;;;;;;;0.34;100.00;98002.13;4998929;28;20053;-73
2024/02/01 01:29:09;;;;;;;49.63;27.25;;;;;;;0.44;100.00;98001.34;4987435;28;20042;-72
2024/02/01 01:31:34;;;;;;;58.63;30.55;;;;;;;0.45;100.00;98000.25;4986044;28;20053;-72
2024/02/01 01:34:00;;;;;;;52.20;29.98;;;;;;;0.40;100.00;98001.06;4999465;28;20053;-72
2024/02/01 01:36:25;;;;;;;50.95;29.55;;;;;;;0.42;100.00;98001.63;4995309;28;20056;-73
2024/02/01 01:38:51;;;;;;;47.83;28.00;;;;;;;0.47;100.00;97992.72;4991021;28;20057;-73
2024/02/01 01:41:16;;;;;;;51.10;28.92;;;;;;;0.44;100.00;97994.06;4985197;28;20045;-73
2024/02/01 01:43:42;;;;;;;51.00;27.77;;;;;;;0.36;100.00;98000.81;4998934;28;20506;-72
2024/02/01 01:46:07;;;;;;;49.75;28.65;;;;;;;0.38;100.00;97995.94;4992970;28;20038;-72
2024/02/01 01:48:34;;;;;;;47.30;27.05;;;;;;;0.65;100.00;97994.06;4981088;28;20050;-74
2024/02/01 01:51:00;;;;;;;48.15;27.98;;;;;;;0.71;100.00;97993.78;4994015;28;20047;-74
2024/02/01 01:53:31;;;;;;;55.22;31.73;;;;;;;0.63;100.00;98001.59;4994375;28;20052;-73
2024/02/01 01:55:57;;;;;;;49.58;27.27;;;;;;;0.64;100.00;97997.84;4998047;28;20041;-73
2024/02/01 01:58:27;;;;;;;41.13;24.92;;;;;;;0.67;100.00;97994.63;4986994;28;20046;-72
2024/02/01 02:00:53;;;;;;;46.30;27.88;;;;;;;0.34;100.00;97994.88;4993619;28;20429;-74
2024/02/01 02:03:22;;;;;;;49.90;27.75;;;;;;;0.48;100.00;97997.03;4960342;28;20038;-74
2024/02/01 02:05:48;;;;;;;50.10;28.70;;;;;;;0.59;100.00;97997.84;4988244;28;20046;-73
2024/02/01 02:08:13;;;;;;;48.60;29.17;;;;;;;0.66;100.00;97993.00;4993387;28;20635;-73
2024/02/01 02:10:39;;;;;;;56.45;29.55;;;;;;;0.66;100.00;97995.69;4995633;28;20412;-73
2024/02/01 02:13:04;;;;;;;50.35;27.55;;;;;;;0.69;100.00;97989.75;4981466;28;20049;-73
2024/02/01 02:15:32;;;;;;;52.75;29.13;;;;;;;0.63;100.00;97996.22;5001644;28;20145;-73
2024/02/01 02:17:57;;;;;;;51.58;30.10;;;;;;;0.69;100.00;97997.84;5000702;28;20084;-73
2024/02/01 02:20:25;;;;;;;47.25;28.45;;;;;;;0.79;100.00;98005.13;4992867;28;20053;-72
2024/02/01 02:22:54;;;;;;;48.13;26.80;;;;;;;0.99;100.00;97998.88;4986123;28;20069;-73
2024/02/01 02:25:20;;;;;;;48.35;28.45;;;;;;;1.10;100.00;98011.31;4979940;28;20813;-72
2024/02/01 02:27:46;;;;;;;50.50;29.58;;;;;;;1.05;100.00;98014.81;5005446;28;20042;-73
2024/02/01 02:30:12;;;;;;;56.05;31.33;;;;;;;1.10;100.00;98008.59;4997585;28;20602;-72
2024/02/01 02:32:41;;;;;;;52.58;29.50;;;;;;;1.16;100.00;98007.50;5001643;28;20049;-72
2024/02/01 02:35:14;;;;;;;53.87;31.90;;;;;;;1.24;100.00;98012.34;5002234;28;20034;-72
2024/02/01 02:37:44;;;;;;;49.08;30.15;;;;;;;1.28;100.00;98013.41;5014707;28;20073;-72
2024/02/01 02:40:12;;;;;;;52.47;30.70;;;;;;;1.34;100.00;98008.81;4996527;28;20049;-73
2024/02/01 02:42:38;;;;;;;51.55;29.70;;;;;;;1.41;100.00;98022.03;5000369;28;20034;-73
2024/02/01 02:45:03;;;;;;;59.67;31.90;;;;;;;1.33;100.00;98012.56;4996669;28;20037;-72
2024/02/01 02:47:29;;;;;;;54.28;31.88;;;;;;;1.34;100.00;98022.31;4999765;28;20050;-73
2024/02/01 02:49:54;;;;;;;52.13;31.65;;;;;;;1.39;100.00;98013.38;5001491;28;20092;-73
2024/02/01 02:52:20;;;;;;;59.08;32.42;;;;;;;1.41;100.00;98006.63;4993595;28;20041;-72
2024/02/01 02:54:45;;;;;;;50.22;29.83;;;;;;;1.47;100.00;98000.13;4982388;28;20065;-73
2024/02/01 02:57:11;;;;;;;56.42;32.95;;;;;;;1.45;100.00;97999.59;4995280;28;20104;-74
2024/02/01 02:59:36;;;;;;;56.10;31.67;;;;;;;1.46;100.00;98009.31;5001304;28;20046;-72
2024/02/01 03:02:06;;;;;;;59.08;32.92;;;;;;;1.56;100.00;98018.47;4993777;28;20574;-74
2024/02/01 03:04:32;;;;;;;;;;;;;;;1.58;100.00;98014.38;4993474;28;20061;-74
2024/02/01 03:06:57;;;;;;;60.42;30.70;;;;;;;1.62;100.00;98012.78;4998118;28;19918;-75
2024/02/01 03:09:22;;;;;;;51.70;31.15;;;;;;;1.62;100.00;98011.94;4988495;28;20050;-74
2024/02/01 03:11:48;;;;;;;59.05;31.05;;;;;;;1.68;100.00;98016.25;5005548;28;20069;-74
2024/02/01 03:14:13;;;;;;;44.67;28.65;;;;;;;1.75;100.00;98014.06;4993028;28;20038;-73
2024/02/01 03:16:39;;;;;;;52.30;29.50;;;;;;;1.83;100.00;98008.06;4993060;28;20092;-74
2024/02/01 03:19:05;;;;;;;44.67;28.13;;;;;;;1.84;100.00;98014.31;4995665;28;20057;-73
2024/02/01 03:21:31;;;;;;;43.20;27.55;;;;;;;1.81;100.00;98020.25;5001129;28;20129;-74
2024/02/01 03:23:58;;;;;;;46.42;27.42;;;;;;;1.82;100.00;98011.88;5000839;28;20050;-74
2024/02/01 03:26:25;;;;;;;46.85;26.95;;;;;;;1.93;100.00;98007.22;4989115;28;20502;-73
2024/02/01 03:28:52;;;;;;;43.47;25.73;;;;;;;1.99;100.00;98010.72;4999093;28;20054;-74
2024/02/01 03:31:17;;;;;;;44.30;26.00;;;;;;;1.97;100.00;98010.19;4997312;28;20112;-74
2024/02/01 03:33:47;;;;;;;39.25;25.00;;;;;;;1.99;100.00;98008.00;4989187;28;20676;-73
2024/02/01 03:36:14;;;;;;;41.75;25.27;;;;;;;1.95;100.00;98015.84;4987251;28;20050;-74
2024/02/01 03:38:42;;;;;;;37.83;24.45;;;;;;;2.02;100.00;98024.47;5004208;28;20053;-74
2024/02/01 03:41:07;;;;;;;42.17;23.45;;;;;;;1.98;100.00;98011.78;4991457;28;20045;-74
2024/02/01 03:43:33;;;;;;;37.00;24.58;;;;;;;2.02;100.00;98004.75;4995779;28;20041;-74
2024/02/01 03:45:59;;;;;;;42.72;24.25;;;;;;;1.93;100.00;98007.22;4981123;28;20523;-74
2024/02/01 03:48:24;;;;;;;38.08;24.30;;;;;;;1.99;100.00;98008.81;4995603;28;20076;-74
2024/02/01 03:50:50;;;;;;;38.47;23.25;;;;;;;1.96;100.00;98006.66;4998373;28;20122;-74
2024/02/01 03:53:16;;;;;;;49.90;26.80;;;;;;;1.79;100.00;97998.91;4992350;28;20072;-72
2024/02/01 03:55:41;;;;;;;40.53;23.23;;;;;;;1.81;100.00;98010.25;4983774;28;20081;-72
2024/02/01 03:58:07;;;;;;;41.58;23.85;;;;;;;1.72;100.00;98001.09;4993654;28;20465;-72
2024/02/01 04:00:33;;;;;;;38.03;24.15;;;;;;;1.71;100.00;98012.97;4986424;28;20054;-73
2024/02/01 04:03:13;;;;;;;40.67;22.80;;;;;;;1.95;100.00;98012.34;4999827;28;20045;-74
2024/02/01 04:05:39;;;;;;;36.67;22.63;;;;;;;2.00;100.00;98020.41;5020476;23;20133;-72
2024/02/01 04:08:08;;;;;;;34.20;22.27;;;;;;;2.19;100.00;98018.69;4970658;28;20141;-72
2024/02/01 04:10:37;;;;;;;34.78;22.55;;;;;;;2.09;100.00;98018.78;4986430;28;20086;-70
2024/02/01 04:13:07;;;;;;;34.25;22.27;;;;;;;2.13;100.00;98011.72;4954339;28;20043;-73
2024/02/01 04:15:34;;;;;;;36.65;21.65;;;;;;;2.17;100.00;98010.06;4969902;28;20062;-68
2024/02/01 04:18:04;;;;;;;32.95;20.40;;;;;;;2.20;100.00;98009.50;4958564;28;20043;-67
2024/02/01 04:20:35;;;;;;;33.60;21.35;;;;;;;2.22;100.00;98012.72;4963975;28;20050;-68
2024/02/01 04:23:01;;;;;;;37.35;21.02;;;;;;;2.24;100.00;98020.56;4957104;28;20042;-72
2024/02/01 04:25:27;;;;;;;36.53;21.98;;;;;;;2.20;100.00;98017.63;4954289;28;20042;-68
2024/02/01 04:27:54;;;;;;;32.80;22.00;;;;;;;2.27;100.00;98020.81;4958563;28;20097;-67
2024/02/01 04:30:20;;;;;;;35.85;21.30;;;;;;;2.27;100.00;98014.59;4952282;28;20046;-68
2024/02/01 04:32:46;;;;;;;38.22;22.92;;;;;;;2.16;100.00;98026.53;4957429;28;20137;-68
2024/02/01 04:35:14;;;;;;;35.55;22.15;;;;;;;2.24;100.00;98040.28;4952540;28;20046;-68
2024/02/01 04:37:40;;;;;;;34.97;22.25;;;;;;;2.32;100.00;98035.38;4955854;28;20046;-72
2024/02/01 04:40:07;;;;;;;33.20;20.88;;;;;;;2.26;100.00;98037.31;4949988;28;20046;-72
2024/02/01 04:42:35;;;;;;;35.00;21.23;;;;;;;2.37;100.00;98049.66;4959865;28;20109;-67
2024/02/01 04:45:04;;;;;;;38.60;21.95;;;;;;;2.46;100.00;98039.88;4958114;28;20047;-72
2024/02/01 04:47:34;;;;;;;28.55;19.30;;;;;;;2.42;100.00;98048.84;4959902;28;20047;-69
2024/02/01 04:50:00;;;;;;;;;;;;;;;2.40;100.00;98048.31;4951752;28;20058;-68
2024/02/01 04:52:26;;;;;;;35.05;20.58;;;;;;;2.46;100.00;98034.47;4951704;28;19918;-68
2024/02/01 04:54:52;;;;;;;34.90;20.83;;;;;;;2.40;100.00;98024.00;4956039;28;20092;-67
2024/02/01 04:57:22;;;;;;;40.30;22.90;;;;;;;2.30;100.00;98024.84;4954302;28;20185;-66
2024/02/01 04:59:47;;;;;;;33.78;22.23;;;;;;;2.39;100.00;98025.06;4982952;28;20047;-68
2024/02/01 05:02:17;;;;;;;37.40;21.35;;;;;;;2.42;100.00;98005.56;4954057;28;20057;-70
2024/02/01 05:04:43;;;;;;;36.08;22.13;;;;;;;2.38;100.00;98007.25;4961318;28;20477;-72
2024/02/01 05:07:10;;;;;;;36.38;22.08;;;;;;;2.36;100.00;98017.50;4950999;28;20201;-67
2024/02/01 05:09:37;;;;;;;34.92;21.90;;;;;;;2.44;100.00;98011.50;4971319;28;20061;-70
2024/02/01 05:12:03;;;;;;;35.85;23.40;;;;;;;2.47;100.00;98006.34;4957495;28;20574;-77
2024/02/01 05:14:29;;;;;;;36.97;21.42;;;;;;;2.46;100.00;98001.22;4967615;28;20078;-73
2024/02/01 05:16:54;;;;;;;34.28;20.58;;;;;;;2.43;100.00;97993.66;4968271;28;20153;-70
2024/02/01 05:19:20;;;;;;;39.63;22.08;;;;;;;2.36;100.00;97982.34;4954581;28;20051;-70
2024/02/01 05:21:47;;;;;;;36.03;22.20;;;;;;;2.43;100.00;97980.97;4957932;28;20498;-69
2024/02/01 05:24:13;;;;;;;32.33;20.98;;;;;;;2.79;100.00;97971.72;4953880;28;20047;-71
2024/02/01 05:26:51;;;;;;;35.45;20.23;;;;;;;2.87;100.00;97954.88;4959599;28;20066;-71
2024/02/01 05:29:21;;;;;;;38.10;21.27;;;;;;;2.81;100.00;97959.53;4947722;28;20049;-72
2024/02/01 05:31:50;;;;;;;31.63;20.33;;;;;;;2.73;100.00;97951.22;4960603;28;20046;-69
2024/02/01 05:34:17;;;;;;;32.20;20.75;;;;;;;2.74;100.00;97948.25;4966105;28;20049;-72
2024/02/01 05:36:46;;;;;;;34.17;20.38;;;;;;;2.67;100.00;97951.28;4961619;28;20047;-69
2024/02/01 05:39:25;;;;;;;31.10;19.48;;;;;;;2.69;100.00;97956.41;4948005;28;20038;-70
2024/02/01 05:41:54;;;;;;;32.90;20.40;;;;;;;2.65;100.00;97958.88;4960699;28;20050;-69
2024/02/01 05:44:21;;;;;;;36.97;23.48;;;;;;;2.60;100.00;97952.69;4968732;28;20098;-73
2024/02/01 05:46:48;;;;;;;32.97;20.05;;;;;;;2.58;100.00;97966.50;4962582;28;20057;-70
2024/02/01 05:49:18;;;;;;;32.80;20.52;;;;;;;2.62;100.00;97958.63;4973379;28;20075;-70
2024/02/01 05:51:52;;;;;;;31.88;19.65;;;;;;;2.64;100.00;97959.94;4963632;28;20066;-72
2024/02/01 05:54:22;;;;;;;31.00;19.80;;;;;;;2.59;100.00;97949.19;4958782;28;20043;-69
2024/02/01 05:56:48;;;;;;;32.78;19.63;;;;;;;2.47;100.00;97951.47;4962793;28;20494;-70
2024/02/01 05:59:16;;;;;;;35.53;20.45;;;;;;;2.45;100.00;97953.66;4966608;28;20156;-70
2024/02/01 06:01:46;;;;;;;27.90;19.23;;;;;;;2.43;100.00;97940.41;4970920;28;20711;-71
2024/02/01 06:04:12;;;;;;;27.35;18.55;;;;;;;2.38;100.00;97945.84;4950567;28;20122;-69
2024/02/01 06:06:40;;;;;;;32.42;19.50;;;;;;;2.38;100.00;97945.84;4967874;28;20051;-71
2024/02/01 06:09:12;;;;;;;30.80;19.70;;;;;;;2.31;100.00;97945.38;4959642;28;20501;-69
2024/02/01 06:11:42;;;;;;;31.75;20.13;;;;;;;2.24;100.00;97951.06;4962571;28;20058;-70
2024/02/01 06:14:08;;;;;;;32.35;20.80;;;;;;;2.03;100.00;97953.09;4958216;28;20046;-70
2024/02/01 06:16:33;;;;;;;29.45;20.70;;;;;;;2.03;100.00;97961.22;4960969;28;20069;-69
2024/02/01 06:18:59;;;;;;;39.67;22.52;;;;;;;2.17;100.00;97971.41;4964062;28;20437;-69
2024/02/01 06:21:25;;;;;;;35.97;21.38;;;;;;;2.24;100.00;97972.69;4958568;28;20047;-71
2024/02/01 06:23:50;;;;;;;32.17;20.10;;;;;;;2.27;100.00;97972.16;4963371;28;20049;-70
2024/02/01 06:26:25;;;;;;;33.17;20.67;;;;;;;2.36;100.00;97966.13;4957036;28;20075;-69
2024/02/01 06:28:58;;;;;;;32.10;19.92;;;;;;;2.45;100.00;97964.47;4963405;28;20046;-69
2024/02/01 06:31:24;;;;;;;34.95;21.98;;;;;;;2.44;100.00;97962.84;4956843;28;20086;-71
2024/02/01 06:33:53;;;;;;;44.65;25.42;;;;;;;2.27;100.00;97955.13;4962814;28;20146;-71
2024/02/01 06:36:20;;;;;;;36.38;22.77;;;;;;;2.14;100.00;97963.84;4957851;28;20062;-70
2024/02/01 06:42:14;;;;;;;38.53;22.52;;;;;;;2.40;100.00;97970.69;4958975;28;20043;-72
2024/02/01 06:44:26;;;;;;;32.38;21.65;;;;;;;2.46;100.00;97971.47;4954790;28;20188;-70
2024/02/01 06:49:28;;;;;;;39.55;22.25;;;;;;;2.48;100.00;97963.88;4958132;28;20143;-68
2024/02/01 06:52:02;;;;;;;35.40;21.25;;;;;;;2.55;100.00;97953.53;4961085;28;20053;-70
2024/02/01 06:54:50;;;;;;;37.00;22.35;;;;;;;2.71;100.00;97956.94;4961476;28;20501;-67
2024/02/01 06:57:22;;;;;;;36.20;22.73;;;;;;;2.81;100.00;97958.72;4950359;28;20490;-69
2024/02/01 07:02:35;;;;;;;39.83;22.48;;;;;;;2.99;100.00;97946.38;4964715;28;20046;-71
2024/02/01 07:05:21;;;;;;;40.40;21.35;;;;;;;2.93;100.00;97940.19;4961803;28;20628;-76
2024/02/01 07:07:50;;;;;;;36.72;22.10;;;;;;;2.78;100.00;97937.66;4963061;28;20378;-71
2024/02/01 07:10:21;;;;;;;35.70;21.90;;;;;;;2.72;100.00;97936.06;4962933;28;20559;-68
2024/02/01 07:15:30;;;;;;;37.50;21.73;;;;;;;2.91;100.00;97931.56;4985309;28;20578;-69
2024/02/01 07:18:05;;;;;;;36.38;21.95;;;;;;;2.99;100.00;97930.94;4971280;28;20425;-72
2024/02/01 07:20:46;;;;;;;41.33;24.83;;;;;;;3.00;100.00;97923.63;4987255;28;20080;-70
2024/02/01 07:26:02;;;;;;;41.10;25.25;;;;;;;3.09;100.00;97931.94;4961208;28;20058;-70
2024/02/01 07:58:38;;;;;;;32.83;19.67;;;;;;;3.83;100.00;97945.91;4969833;28;20046;-68
2024/02/01 08:01:14;;;;;;;35.10;19.40;;;;;;;3.95;100.00;97959.84;4971137;28;20051;-76
2024/02/01 08:03:56;;;;;;;27.13;17.95;;;;;;;3.96;100.00;97971.50;4968908;28;20046;-69
2024/02/01 08:09:12;;;;;;;33.30;19.35;;;;;;;3.85;100.00;97972.72;4959262;28;20042;-70
2024/02/01 08:11:41;;;;;;;32.15;18.98;;;;;;;3.97;100.00;97964.97;4964467;28;20051;-70
2024/02/01 08:14:08;;;;;;;38.05;20.85;;;;;;;4.09;100.00;97965.34;4965490;28;20043;-71
2024/02/01 08:16:33;;;;;;;36.05;20.25;;;;;;;4.10;100.00;97966.94;4964168;28;20362;-69
2024/02/01 08:18:59;;;;;;;32.92;18.40;;;;;;;4.22;100.00;97961.09;4963106;28;20082;-70
2024/02/01 08:21:26;;;;;;;29.58;18.55;;;;;;;4.17;100.00;97963.88;4965041;28;20043;-70
2024/02/01 08:23:54;;;;;;;31.85;18.15;;;;;;;4.21;100.00;97952.16;4982137;28;20062;-72
2024/02/01 08:26:21;;;;;;;40.17;20.73;;;;;;;4.28;100.00;97961.81;4962855;28;20050;-70
2024/02/01 08:28:47;;;;;;;39.60;21.33;;;;;;;4.19;100.00;97973.31;4972476;28;20441;-68
2024/02/01 08:31:17;;;;;;;34.53;20.27;;;;;;;4.10;100.00;97974.28;4959656;28;20042;-67
2024/02/01 08:33:44;;;;;;;;;;;;;;;3.96;100.00;97976.91;4964221;28;20568;-69
2024/02/01 08:36:12;;;;;;;38.42;22.27;;;;;;;3.85;100.00;97978.16;4956922;28;19922;-72
2024/02/01 08:38:38;;;;;;;40.25;24.58;;;;;;;3.90;100.00;97995.16;4967563;28;20543;-70
2024/02/01 08:41:04;;;;;;;34.38;21.70;;;;;;;3.98;100.00;97990.97;4982693;28;20492;-72
2024/02/01 08:43:30;;;;;;;37.80;20.02;;;;;;;4.15;100.00;97998.63;4964716;28;20046;-71
2024/02/01 08:45:56;;;;;;;32.25;18.15;;;;;;;4.31;100.00;98005.44;4964452;28;20100;-69
2024/02/01 08:48:24;;;;;;;33.28;18.95;;;;;;;4.40;100.00;98013.72;4964715;28;20251;-71
2024/02/01 08:50:52;;;;;;;33.40;18.90;;;;;;;4.50;100.00;98013.59;4967589;28;20502;-76
2024/02/01 08:53:19;;;;;;;32.42;18.30;;;;;;;4.54;100.00;98014.59;4960856;28;20031;-69
2024/02/01 08:55:45;;;;;;;29.30;15.50;;;;;;;4.64;100.00;98015.53;4962837;28;20043;-70
2024/02/01 08:58:12;;;;;;;25.70;15.63;;;;;;;4.84;100.00;98020.63;4960218;28;20525;-70
2024/02/01 09:00:39;;;;;;;28.45;15.13;;;;;;;4.97;100.00;98024.50;4970586;28;20112;-69
2024/02/01 09:03:06;;;;;;;25.50;14.57;;;;;;;5.05;100.00;98020.31;4965017;28;20046;-70
2024/02/01 09:05:34;;;;;;;29.42;14.00;;;;;;;5.12;100.00;98024.22;4962738;28;20050;-68
2024/02/01 09:08:00;;;;;;;24.63;13.48;;;;;;;5.17;100.00;98031.50;4963934;28;20579;-69
2024/02/01 09:10:26;;;;;;;22.23;14.13;;;;;;;5.22;100.00;98028.69;4955939;28;20054;-70
2024/02/01 09:12:51;;;;;;;27.33;13.82;;;;;;;5.44;100.00;98021.75;4961971;28;20398;-67
2024/02/01 09:15:17;;;;;;;25.67;13.93;;;;;;;5.40;100.00;98029.69;4956520;28;20118;-68
2024/02/01 09:17:46;;;;;;;25.15;15.40;;;;;;;5.36;100.00;98029.50;4976630;28;20116;-69
2024/02/01 09:20:18;;;;;;;25.13;14.60;;;;;;;5.29;100.00;98034.50;4963904;28;20031;-69
2024/02/01 09:22:50;;;;;;;23.50;14.55;;;;;;;5.21;100.00;98032.50;4960757;28;20073;-68
2024/02/01 09:25:25;;;;;;;28.00;16.20;;;;;;;5.17;100.00;98031.50;4945983;28;20041;-68
2024/02/01 09:27:52;;;;;;;24.35;14.88;;;;;;;5.16;100.00;98032.59;4961300;28;20050;-70
2024/02/01 09:30:19;;;;;;;28.17;15.07;;;;;;;5.25;100.00;98043.59;4955376;28;20054;-68
2024/02/01 09:32:53;;;;;;;28.10;14.27;;;;;;;5.30;100.00;98043.50;4961388;28;20162;-69
2024/02/01 09:35:20;;;;;;;28.20;15.68;;;;;;;5.35;100.00;98038.78;4948568;28;20541;-69
2024/02/01 09:37:51;;;;;;;27.10;15.75;;;;;;;5.31;100.00;98043.19;4961748;28;20053;-72
2024/02/01 09:40:20;;;;;;;32.05;15.52;;;;;;;5.28;100.00;98043.78;4972444;28;20054;-68
2024/02/01 09:42:51;;;;;;;41.17;18.25;;;;;;;5.29;100.00;98041.88;4970586;28;20043;-69
2024/02/01 09:45:28;;;;;;;31.45;17.58;;;;;;;5.29;100.00;98047.31;4957422;28;20034;-68
2024/02/01 09:47:54;;;;;;;32.22;17.30;;;;;;;5.25;100.00;98046.28;4976368;28;20050;-69
2024/02/01 09:50:20;;;;;;;33.47;18.48;;;;;;;5.27;100.00;98052.22;4970989;28;20647;-72
2024/02/01 09:52:50;;;;;;;34.75;17.55;;;;;;;5.22;100.00;98055.03;4961707;28;20077;-69
2024/02/01 09:55:18;;;;;;;27.33;17.23;;;;;;;5.28;100.00;98054.66;4956622;28;20098;-68
2024/02/01 09:57:45;;;;;;;32.65;17.27;;;;;;;5.34;100.00;98055.38;4961793;28;20046;-69
2024/02/01 10:00:23;;;;;;;30.25;16.13;;;;;;;5.39;100.00;98055.28;4956755;28;20141;-67
2024/02/01 10:02:51;;;;;;;30.65;16.75;;;;;;;5.54;100.00;98049.53;4982167;28;20042;-67
2024/02/01 10:05:17;;;;;;;31.88;17.05;;;;;;;5.58;100.00;98046.25;4988462;28;20047;-67
2024/02/01 10:07:43;;;;;;;26.98;15.80;;;;;;;5.55;100.00;98043.00;4960629;28;20105;-68
2024/02/01 10:10:12;;;;;;;32.60;17.88;;;;;;;5.53;100.00;98050.66;4958632;28;20445;-70
2024/02/01 10:12:37;;;;;;;31.05;16.92;;;;;;;5.52;100.00;98050.97;4960607;28;20131;-69
2024/02/01 10:15:10;;;;;;;56.58;30.35;;;;;;;5.53;100.00;98058.81;4956513;28;20122;-74
2024/02/01 10:17:46;;;;;;;29.23;17.35;;;;;;;5.54;100.00;98054.19;4959640;28;20105;-72
2024/02/01 10:20:33;;;;;;;32.03;18.48;;;;;;;5.59;100.00;98061.44;4955603;28;20107;-69
2024/02/01 10:23:15;;;;;;;31.02;16.52;;;;;;;5.65;100.00;98057.53;4960511;28;20529;-69
2024/02/01 10:25:44;;;;;;;32.72;16.65;;;;;;;5.67;100.00;98061.56;4956652;28;20775;-68
2024/02/01 10:28:13;;;;;;;31.67;16.48;;;;;;;5.70;100.00;98063.66;4954003;28;20050;-68
2024/02/01 10:30:40;;;;;;;29.80;16.70;;;;;;;5.86;100.00;98060.66;4961075;28;20055;-67
2024/02/01 10:33:07;;;;;;;25.98;16.55;;;;;;;5.92;100.00;98060.25;4957553;28;20039;-67
2024/02/01 10:35:33;;;;;;;24.40;15.88;;;;;;;5.97;100.00;98059.38;4964423;28;20063;-70
2024/02/01 10:38:12;;;;;;;26.17;15.73;;;;;;;5.98;100.00;98060.16;4964593;28;20131;-68
2024/02/01 10:40:48;;;;;;;25.15;15.90;;;;;;;5.99;100.00;98070.75;4963917;28;20383;-69
2024/02/01 10:43:18;;;;;;;24.83;15.40;;;;;;;6.04;100.00;98061.69;4960208;28;20046;-68
2024/02/01 10:45:48;;;;;;;23.20;14.20;;;;;;;6.10;100.00;98064.00;4962233;28;20034;-67
2024/02/01 10:48:15;;;;;;;26.15;14.85;;;;;;;6.07;100.00;98045.56;4957530;28;20058;-67
2024/02/01 10:50:43;;;;;;;24.60;14.60;;;;;;;6.01;100.00;98049.47;4963801;28;20057;-70
2024/02/01 10:53:11;;;;;;;28.27;16.15;;;;;;;5.93;100.00;98047.47;4961881;28;20859;-71
2024/02/01 10:55:40;;;;;;;26.30;16.58;;;;;;;5.83;100.00;98042.22;4962127;28;20051;-67
2024/02/01 10:58:13;;;;;;;29.13;15.70;;;;;;;5.75;100.00;98049.97;4957246;28;20081;-67
2024/02/01 11:00:42;;;;;;;30.48;16.67;;;;;;;5.71;100.00;98040.81;4962508;28;20046;-68
2024/02/01 11:03:11;;;;;;;27.67;15.60;;;;;;;5.70;100.00;98035.69;4977753;28;20045;-69
2024/02/01 11:05:38;;;;;;;30.10;16.20;;;;;;;5.68;100.00;98041.41;4967278;28;20039;-66
2024/02/01 11:08:13;;;;;;;31.90;16.60;;;;;;;5.69;100.00;98039.50;4956932;28;20051;-74
2024/02/01 11:10:38;;;;;;;26.75;16.00;;;;;;;5.76;100.00;98039.91;4962181;28;20047;-68
2024/02/01 11:13:03;;;;;;;34.88;17.85;;;;;;;5.72;100.00;98033.47;4971728;28;20061;-73
2024/02/01 11:15:29;;;;;;;29.23;15.98;;;;;;;5.71;100.00;98032.66;4975572;28;20070;-68
2024/02/01 11:17:59;;;;;;;30.08;17.77;;;;;;;5.74;100.00;98025.81;4961789;28;20051;-68
2024/02/01 11:20:25;;;;;;;30.17;17.15;;;;;;;5.74;100.00;98040.22;4957752;28;20046;-69
2024/02/01 11:22:58;;;;;;;26.67;16.75;;;;;;;5.79;100.00;98035.78;4962586;28;20097;-68
2024/02/01 11:25:27;;;;;;;29.67;17.33;;;;;;;5.85;100.00;98029.94;4949239;28;20038;-67
2024/02/01 11:27:53;;;;;;;29.92;17.10;;;;;;;5.84;100.00;98031.03;4962734;28;20034;-67
2024/02/01 11:30:28;;;;;;;28.38;17.17;;;;;;;5.92;100.00;98027.63;4957205;28;20511;-69
2024/02/01 11:32:55;;;;;;;27.15;16.00;;;;;;;5.91;100.00;98025.22;4965563;28;20705;-68
2024/02/01 11:35:23;;;;;;;28.40;17.08;;;;;;;5.89;100.00;98019.28;4954543;28;20074;-69
2024/02/01 11:38:01;;;;;;;30.58;17.05;;;;;;;5.93;100.00;98020.25;4973059;28;20066;-70
2024/02/01 11:40:27;;;;;;;29.75;16.65;;;;;;;5.97;100.00;98018.56;4951434;28;20138;-69
2024/02/01 11:42:53;;;;;;;29.77;17.55;;;;;;;5.97;100.00;98015.06;4961886;28;20042;-68
2024/02/01 11:45:18;;;;;;;29.98;17.00;;;;;;;5.97;100.00;98015.84;4956583;28;20121;-70
2024/02/01 11:47:44;;;;;;;29.17;17.73;;;;;;;6.03;100.00;98011.09;4961330;28;20130;-68
2024/02/01 11:50:10;;;;;;;31.85;19.08;;;;;;;6.06;100.00;98011.31;4956887;28;20528;-68
2024/02/01 11:52:55;;;;;;;38.35;18.70;;;;;;;6.15;100.00;98014.13;4961836;28;20129;-68
2024/02/01 11:55:21;;;;;;;32.40;18.15;;;;;;;6.40;100.00;98020.91;4963453;28;20899;-70
2024/02/01 11:57:47;;;;;;;34.20;18.92;;;;;;;6.41;100.00;98016.25;4975511;28;20110;-72
2024/02/01 12:00:23;;;;;;;48.60;31.92;;;;;;;6.33;100.00;98012.34;4959617;28;20613;-67
2024/02/01 12:02:48;;;;;;;35.15;21.95;;;;;;;6.52;100.00;98014.94;4967533;28;20497;-72
2024/02/01 12:05:20;;;;;;;39.05;22.13;;;;;;;6.47;100.00;98009.59;4971671;28;20076;-69
2024/02/01 12:07:49;;;;;;;34.90;20.45;;;;;;;6.48;100.00;98013.91;4959617;28;20409;-68